Time;durP1;ratioP1;P1;durP2;ratioP2;P2;SDS_P1;SDS_P2;PMS_P1;PMS_P2;Temp;Humidity;BMP_temperature;BMP_pressure;BME280_temperature;BME280_humidity;BME280_pressure;Samples;Min_cycle;Max_cycle;Signal;HPM_P1;HPM_P2
2022/02/27 00:01:47;;;;;;;0.77;0.77;;;-0.60;99.90;;;;;;5093460;28;20286;-83
2022/02/27 00:04:13;;;;;;;0.65;0.65;;;-0.70;99.90;;;;;;5094961;28;20697;-83
2022/02/27 00:06:38;;;;;;;0.77;0.77;;;-0.60;99.90;;;;;;5112608;27;20199;-83
2022/02/27 00:09:04;;;;;;;0.70;0.70;;;-0.70;99.90;;;;;;5112997;27;20227;-85
2022/02/27 00:11:30;;;;;;;0.70;0.70;;;-0.70;99.90;;;;;;5094523;28;20207;-84
2022/02/27 00:13:56;;;;;;;0.80;0.80;;;-0.80;99.90;;;;;;5110638;28;20251;-83
2022/02/27 00:16:21;;;;;;;0.80;0.80;;;-0.80;99.90;;;;;;5091045;28;20360;-82
2022/02/27 00:18:47;;;;;;;0.80;0.80;;;-0.70;99.90;;;;;;5090065;28;20208;-82
2022/02/27 00:21:13;;;;;;;0.70;0.70;;;-0.60;99.90;;;;;;5090123;28;20310;-83
2022/02/27 00:23:38;;;;;;;0.70;0.70;;;-0.50;99.90;;;;;;5107034;28;20569;-82
2022/02/27 00:26:04;;;;;;;0.70;0.70;;;-0.40;99.90;;;;;;5099387;28;20208;-83
2022/02/27 00:28:30;;;;;;;0.70;0.70;;;-0.40;99.90;;;;;;5087733;28;20207;-83
2022/02/27 00:30:56;;;;;;;0.80;0.80;;;-0.40;99.90;;;;;;5101178;28;20276;-83
2022/02/27 00:33:21;;;;;;;0.70;0.70;;;-0.40;99.90;;;;;;5083978;28;20203;-83
2022/02/27 00:35:47;;;;;;;0.68;0.68;;;-0.40;99.90;;;;;;5092923;28;20199;-83
2022/02/27 00:38:13;;;;;;;0.80;0.80;;;-0.50;99.90;;;;;;5119287;27;20225;-82
2022/02/27 00:40:39;;;;;;;0.80;0.80;;;-0.40;99.90;;;;;;5105467;28;20658;-82
2022/02/27 00:43:05;;;;;;;0.80;0.80;;;-0.40;99.90;;;;;;5096310;27;20680;-83
2022/02/27 00:45:31;;;;;;;0.95;0.95;;;-0.40;99.90;;;;;;5109840;28;20214;-85
2022/02/27 00:47:57;;;;;;;0.80;0.80;;;-0.40;99.90;;;;;;5093835;28;20196;-83
2022/02/27 00:50:23;;;;;;;0.70;0.70;;;-0.40;99.90;;;;;;5112207;28;20515;-84
2022/02/27 00:52:48;;;;;;;0.80;0.80;;;-0.40;99.90;;;;;;5094861;28;20203;-83
2022/02/27 00:55:14;;;;;;;8.13;2.78;;;-0.30;99.90;;;;;;5131470;27;20207;-83
2022/02/27 00:57:40;;;;;;;1.67;1.23;;;-0.30;99.90;;;;;;5110690;28;20310;-86
2022/02/27 01:00:07;;;;;;;0.70;0.70;;;-0.30;99.90;;;;;;5112467;28;20199;-83
2022/02/27 01:02:33;;;;;;;0.70;0.70;;;-0.30;99.90;;;;;;5095818;28;20195;-83
2022/02/27 01:04:58;;;;;;;0.70;0.70;;;-0.30;99.90;;;;;;5094286;28;20199;-83
2022/02/27 01:07:24;;;;;;;0.90;0.90;;;-0.30;99.90;;;;;;5093672;28;20203;-84
2022/02/27 01:09:50;;;;;;;0.77;0.77;;;-0.30;99.90;;;;;;5096899;28;20205;-83
2022/02/27 01:12:16;;;;;;;0.70;0.70;;;-0.20;99.90;;;;;;5109340;27;20568;-83
2022/02/27 01:14:41;;;;;;;0.70;0.70;;;-0.10;99.90;;;;;;5103582;28;20199;-83
2022/02/27 01:17:07;;;;;;;0.70;0.70;;;-0.10;99.90;;;;;;5097844;28;20218;-83
2022/02/27 01:19:36;;;;;;;0.60;0.60;;;-0.10;99.90;;;;;;5105939;28;20212;-83
2022/02/27 01:22:02;;;;;;;0.50;0.50;;;0.00;99.90;;;;;;5089377;28;20565;-85
2022/02/27 01:24:28;;;;;;;0.88;0.88;;;-0.10;99.90;;;;;;5097531;28;20203;-84
2022/02/27 01:26:54;;;;;;;0.60;0.60;;;-0.10;99.90;;;;;;5099103;28;20207;-83
2022/02/27 01:29:19;;;;;;;0.77;0.77;;;-0.10;99.90;;;;;;5112274;27;20249;-85
2022/02/27 01:31:45;;;;;;;0.73;0.73;;;-0.10;99.90;;;;;;5086144;27;20195;-83
2022/02/27 01:34:11;;;;;;;0.70;0.70;;;-0.20;99.90;;;;;;5113376;28;20256;-82
2022/02/27 01:36:36;;;;;;;0.70;0.70;;;-0.30;99.90;;;;;;5096389;28;20248;-83
2022/02/27 01:39:03;;;;;;;1.85;1.75;;;-0.30;99.90;;;;;;5133885;27;20214;-85
2022/02/27 01:41:29;;;;;;;0.75;0.75;;;-0.40;99.90;;;;;;5132737;27;20191;-85
2022/02/27 01:43:56;;;;;;;0.68;0.68;;;-0.40;99.90;;;;;;5114923;28;20287;-82
2022/02/27 01:46:21;;;;;;;0.70;0.70;;;-0.40;99.90;;;;;;5096199;28;20674;-84
2022/02/27 01:48:47;;;;;;;0.70;0.70;;;-0.40;99.90;;;;;;5097593;28;20203;-84
2022/02/27 01:51:14;;;;;;;0.70;0.70;;;-0.40;99.90;;;;;;5095737;28;20727;-83
2022/02/27 01:53:41;;;;;;;0.70;0.70;;;-0.40;99.90;;;;;;5096094;28;20224;-83
2022/02/27 01:56:07;;;;;;;0.70;0.70;;;-0.40;99.90;;;;;;5123824;27;20234;-83
2022/02/27 01:58:33;;;;;;;0.60;0.60;;;-0.40;99.90;;;;;;5129655;27;20665;-83
2022/02/27 02:01:00;;;;;;;0.70;0.70;;;-0.40;99.90;;;;;;5135932;27;20290;-84
2022/02/27 02:03:27;;;;;;;0.60;0.60;;;-0.30;99.90;;;;;;5144733;27;20210;-83
2022/02/27 02:05:54;;;;;;;0.68;0.68;;;-0.20;99.90;;;;;;5125877;27;20197;-84
2022/02/27 02:08:20;;;;;;;0.68;0.68;;;-0.20;99.90;;;;;;5135711;27;20558;-83
2022/02/27 02:10:46;;;;;;;0.80;0.80;;;-0.10;99.90;;;;;;5126103;27;20191;-83
2022/02/27 02:13:12;;;;;;;0.70;0.70;;;-0.10;99.90;;;;;;5126087;27;20222;-83
2022/02/27 02:15:38;;;;;;;1.38;1.27;;;0.00;99.90;;;;;;5126178;27;20198;-84
2022/02/27 02:18:09;;;;;;;0.75;0.75;;;0.00;99.90;;;;;;5132897;27;20201;-84
2022/02/27 02:20:35;;;;;;;0.70;0.70;;;0.10;99.90;;;;;;5133651;27;20194;-84
2022/02/27 02:23:01;;;;;;;0.75;0.75;;;0.10;99.90;;;;;;5128344;27;20203;-83
2022/02/27 02:25:27;;;;;;;1.42;1.33;;;0.20;99.90;;;;;;5104929;27;20197;-84
2022/02/27 02:27:53;;;;;;;0.70;0.70;;;0.10;99.90;;;;;;5134235;27;20256;-83
2022/02/27 02:30:19;;;;;;;0.70;0.70;;;0.10;99.90;;;;;;5135465;27;20203;-84
2022/02/27 02:32:46;;;;;;;0.75;0.75;;;0.20;99.90;;;;;;5137614;27;20677;-83
2022/02/27 02:35:12;;;;;;;0.70;0.70;;;0.30;99.90;;;;;;5117139;27;20195;-83
2022/02/27 02:37:38;;;;;;;0.60;0.60;;;0.30;99.90;;;;;;5134500;27;20216;-87
2022/02/27 02:40:05;;;;;;;0.80;0.80;;;0.30;99.90;;;;;;5132805;27;20247;-82
2022/02/27 02:42:31;;;;;;;0.70;0.70;;;0.30;99.90;;;;;;5133170;27;20664;-83
2022/02/27 02:44:57;;;;;;;0.70;0.70;;;0.30;99.90;;;;;;5118570;27;20206;-83
2022/02/27 02:47:23;;;;;;;0.80;0.80;;;0.30;99.90;;;;;;5127419;27;20235;-83
2022/02/27 02:49:52;;;;;;;0.80;0.80;;;0.30;99.90;;;;;;5132546;27;20202;-83
2022/02/27 02:52:18;;;;;;;1.42;1.35;;;0.40;99.90;;;;;;5133379;27;20567;-83
2022/02/27 02:54:44;;;;;;;0.65;0.65;;;0.40;99.90;;;;;;5133596;27;20230;-84
2022/02/27 02:57:10;;;;;;;0.77;0.77;;;0.40;99.90;;;;;;5125004;27;20655;-84
2022/02/27 02:59:35;;;;;;;0.60;0.60;;;0.50;99.90;;;;;;5135958;27;20230;-84
2022/02/27 03:02:02;;;;;;;0.80;0.80;;;0.50;99.90;;;;;;5109399;27;20194;-84
2022/02/27 03:04:29;;;;;;;0.70;0.70;;;0.50;99.90;;;;;;5115173;27;20364;-83
2022/02/27 03:06:54;;;;;;;0.60;0.60;;;0.50;99.90;;;;;;5114982;27;20566;-83
2022/02/27 03:09:20;;;;;;;0.70;0.70;;;0.50;99.90;;;;;;5116146;27;20202;-84
2022/02/27 03:11:47;;;;;;;0.70;0.70;;;0.60;99.90;;;;;;5117993;27;20646;-84
2022/02/27 03:14:13;;;;;;;0.70;0.70;;;0.60;99.90;;;;;;5131058;27;20583;-83
2022/02/27 03:16:39;;;;;;;0.65;0.65;;;0.60;99.90;;;;;;5117959;27;20203;-85
2022/02/27 03:19:04;;;;;;;0.70;0.70;;;0.60;99.90;;;;;;5132962;27;20215;-85
2022/02/27 03:21:30;;;;;;;0.70;0.70;;;0.50;99.90;;;;;;5134583;27;20669;-84
2022/02/27 03:23:56;;;;;;;0.70;0.70;;;0.60;99.90;;;;;;5135521;27;20667;-84
2022/02/27 03:26:22;;;;;;;0.70;0.70;;;0.60;99.90;;;;;;5116132;27;20202;-82
2022/02/27 03:28:49;;;;;;;0.70;0.70;;;0.60;99.90;;;;;;5113866;27;20203;-83
2022/02/27 03:31:15;;;;;;;0.70;0.70;;;0.60;99.90;;;;;;5134394;27;20631;-83
2022/02/27 03:33:43;;;;;;;0.60;0.60;;;0.60;99.90;;;;;;5115657;27;20207;-83
2022/02/27 03:36:09;;;;;;;0.60;0.60;;;0.60;99.90;;;;;;5131784;27;20202;-83
2022/02/27 03:38:35;;;;;;;0.63;0.63;;;0.60;99.90;;;;;;5148984;27;20616;-83
2022/02/27 03:41:00;;;;;;;0.60;0.60;;;0.50;99.90;;;;;;5133663;27;20230;-83
2022/02/27 03:43:26;;;;;;;0.60;0.60;;;0.50;99.90;;;;;;5119048;27;20206;-83
2022/02/27 03:45:52;;;;;;;0.70;0.70;;;0.60;99.90;;;;;;5143527;27;20194;-83
2022/02/27 03:48:17;;;;;;;0.60;0.60;;;0.60;99.90;;;;;;5124780;27;20213;-83
2022/02/27 03:50:43;;;;;;;0.70;0.70;;;0.60;99.90;;;;;;5142057;27;20194;-83
2022/02/27 03:53:09;;;;;;;3.03;2.15;;;0.70;99.90;;;;;;5123455;27;20195;-84
2022/02/27 03:55:34;;;;;;;0.70;0.70;;;0.70;99.90;;;;;;5111948;28;20211;-84
2022/02/27 03:58:00;;;;;;;0.70;0.70;;;0.70;99.90;;;;;;5089686;28;20215;-85
2022/02/27 04:00:26;;;;;;;0.68;0.68;;;0.70;99.90;;;;;;5108195;28;20199;-86
2022/02/27 04:02:52;;;;;;;0.70;0.70;;;0.70;99.90;;;;;;5111952;28;20761;-82
2022/02/27 04:05:19;;;;;;;0.80;0.80;;;0.70;99.90;;;;;;5123194;27;20213;-82
2022/02/27 04:07:45;;;;;;;0.70;0.70;;;0.70;99.90;;;;;;5136186;27;20203;-83
2022/02/27 04:10:12;;;;;;;0.60;0.60;;;0.70;99.90;;;;;;5135458;27;20259;-83
2022/02/27 04:12:38;;;;;;;0.60;0.60;;;0.70;99.90;;;;;;5153333;27;20195;-83
2022/02/27 04:15:05;;;;;;;0.60;0.60;;;0.70;99.90;;;;;;5128604;28;20278;-85
2022/02/27 04:17:31;;;;;;;0.70;0.70;;;0.70;99.90;;;;;;5101504;28;20231;-86
2022/02/27 04:20:00;;;;;;;0.85;0.80;;;0.70;99.90;;;;;;5120627;28;20183;-89
2022/02/27 04:22:27;;;;;;;1.80;1.70;;;0.70;99.90;;;;;;5121202;27;20210;-86
2022/02/27 04:24:56;;;;;;;0.70;0.70;;;0.60;99.90;;;;;;5121208;28;20202;-85
2022/02/27 04:27:22;;;;;;;0.70;0.70;;;0.60;99.90;;;;;;5118925;28;20192;-86
2022/02/27 04:29:48;;;;;;;2.20;1.42;;;0.60;99.90;;;;;;5120449;28;20217;-84
2022/02/27 04:32:13;;;;;;;0.80;0.80;;;0.60;99.90;;;;;;5120212;28;20191;-83
2022/02/27 04:34:39;;;;;;;0.60;0.60;;;0.60;99.90;;;;;;5132478;27;20207;-84
2022/02/27 04:37:05;;;;;;;0.68;0.68;;;0.50;99.90;;;;;;5123218;28;20208;-84
2022/02/27 04:39:31;;;;;;;0.70;0.70;;;0.50;99.90;;;;;;5118702;28;20211;-85
2022/02/27 04:41:57;;;;;;;0.68;0.68;;;0.50;99.90;;;;;;5121102;28;20203;-83
2022/02/27 04:44:22;;;;;;;0.68;0.68;;;0.40;99.90;;;;;;5117791;28;20600;-82
2022/02/27 04:46:48;;;;;;;0.70;0.70;;;0.40;99.90;;;;;;5104863;28;20206;-83
2022/02/27 04:49:14;;;;;;;0.70;0.70;;;0.40;99.90;;;;;;5095900;28;20234;-83
2022/02/27 04:51:40;;;;;;;0.73;0.73;;;0.30;99.90;;;;;;5097973;28;20199;-83
2022/02/27 04:54:07;;;;;;;0.70;0.70;;;0.30;99.90;;;;;;5117535;28;20207;-83
2022/02/27 04:56:33;;;;;;;0.50;0.50;;;0.30;99.90;;;;;;5105500;28;20302;-83
2022/02/27 04:58:59;;;;;;;0.75;0.75;;;0.20;99.90;;;;;;5093679;28;20199;-83
2022/02/27 05:01:25;;;;;;;0.70;0.70;;;0.00;99.90;;;;;;5097599;28;20252;-84
2022/02/27 05:03:51;;;;;;;0.60;0.60;;;0.00;99.90;;;;;;5109433;28;20255;-84
2022/02/27 05:06:17;;;;;;;0.70;0.70;;;-0.10;99.90;;;;;;5112285;28;20214;-85
2022/02/27 05:08:42;;;;;;;0.80;0.80;;;-0.10;99.90;;;;;;5111267;28;20271;-85
2022/02/27 05:11:08;;;;;;;0.70;0.70;;;-0.10;99.90;;;;;;5111428;28;20194;-84
2022/02/27 05:13:33;;;;;;;0.73;0.73;;;0.00;99.90;;;;;;5112438;28;20206;-84
2022/02/27 05:16:03;;;;;;;0.70;0.70;;;0.00;99.90;;;;;;5093239;28;20218;-84
2022/02/27 05:18:28;;;;;;;0.77;0.77;;;0.00;99.90;;;;;;5128981;28;20249;-83
2022/02/27 05:20:54;;;;;;;1.00;0.95;;;0.10;99.90;;;;;;5093549;28;20635;-84
2022/02/27 05:23:20;;;;;;;0.70;0.70;;;0.10;99.90;;;;;;5092773;28;20196;-84
2022/02/27 05:25:45;;;;;;;1.85;1.35;;;0.10;99.90;;;;;;5092898;28;20261;-83
2022/02/27 05:28:11;;;;;;;0.80;0.80;;;0.10;99.90;;;;;;5125080;28;20203;-82
2022/02/27 05:30:37;;;;;;;0.70;0.70;;;0.10;99.90;;;;;;5098914;28;20231;-83
2022/02/27 05:33:03;;;;;;;1.20;1.10;;;0.10;99.90;;;;;;5122625;28;20205;-83
2022/02/27 05:35:28;;;;;;;0.60;0.60;;;0.10;99.90;;;;;;5101060;28;20204;-83
2022/02/27 05:37:54;;;;;;;0.57;0.57;;;0.10;99.90;;;;;;5101888;28;20207;-83
2022/02/27 05:40:20;;;;;;;0.77;0.77;;;0.00;99.90;;;;;;5101519;28;20203;-85
2022/02/27 05:42:45;;;;;;;0.70;0.70;;;0.00;99.90;;;;;;5085062;28;20195;-84
2022/02/27 05:45:11;;;;;;;0.70;0.70;;;-0.20;99.90;;;;;;5100990;28;20681;-83
2022/02/27 05:47:37;;;;;;;0.60;0.60;;;-0.30;99.90;;;;;;5105794;28;20761;-83
2022/02/27 05:50:05;;;;;;;0.70;0.70;;;-0.30;99.90;;;;;;5094981;28;20579;-82
2022/02/27 05:52:30;;;;;;;0.70;0.70;;;-0.30;99.90;;;;;;5111850;28;20195;-83
2022/02/27 05:54:56;;;;;;;0.70;0.70;;;-0.40;99.90;;;;;;5095397;28;20226;-83
2022/02/27 05:57:22;;;;;;;0.70;0.70;;;-0.50;99.90;;;;;;5099516;27;20223;-85
2022/02/27 05:59:48;;;;;;;0.80;0.80;;;-0.70;99.90;;;;;;5115127;27;20195;-83
2022/02/27 06:02:14;;;;;;;0.93;0.93;;;-0.90;99.90;;;;;;5099484;27;20358;-84
2022/02/27 06:04:39;;;;;;;0.80;0.80;;;-1.00;99.90;;;;;;5097721;28;20207;-84
2022/02/27 06:07:05;;;;;;;0.70;0.70;;;-1.10;99.90;;;;;;5096400;28;20250;-82
2022/02/27 06:09:31;;;;;;;1.35;1.25;;;-1.20;99.90;;;;;;5096933;27;20708;-83
2022/02/27 06:11:57;;;;;;;0.63;0.63;;;-1.30;99.90;;;;;;5114520;27;20674;-83
2022/02/27 06:14:23;;;;;;;0.70;0.70;;;-1.30;99.90;;;;;;5089796;28;20200;-83
2022/02/27 06:16:49;;;;;;;0.90;0.90;;;-1.40;99.90;;;;;;5093834;28;20237;-83
2022/02/27 06:19:14;;;;;;;0.80;0.80;;;-1.40;99.90;;;;;;5097008;28;20210;-82
2022/02/27 06:21:41;;;;;;;0.70;0.70;;;-1.50;99.90;;;;;;5095462;28;20202;-83
2022/02/27 06:24:07;;;;;;;0.80;0.80;;;-1.50;99.90;;;;;;5096730;28;20700;-82
2022/02/27 06:26:34;;;;;;;0.80;0.80;;;-1.50;99.90;;;;;;5103271;28;20201;-83
2022/02/27 06:29:02;;;;;;;0.63;0.63;;;-1.50;99.90;;;;;;5098185;27;20202;-83
2022/02/27 06:31:29;;;;;;;0.60;0.60;;;-1.60;99.90;;;;;;5103340;28;20756;-83
2022/02/27 06:33:55;;;;;;;0.80;0.80;;;-1.60;99.90;;;;;;5097798;28;20286;-82
2022/02/27 06:36:21;;;;;;;0.93;0.93;;;-1.70;99.90;;;;;;5104847;27;20289;-83
2022/02/27 06:38:47;;;;;;;0.75;0.75;;;-1.70;99.90;;;;;;5131285;27;20202;-83
2022/02/27 06:41:15;;;;;;;0.80;0.80;;;-1.70;99.90;;;;;;5107950;28;20675;-83
2022/02/27 06:43:41;;;;;;;0.80;0.80;;;-1.70;99.90;;;;;;5096069;28;20249;-83
2022/02/27 06:46:07;;;;;;;0.65;0.65;;;-1.70;99.90;;;;;;5095374;28;20674;-82
2022/02/27 06:48:33;;;;;;;0.80;0.80;;;-1.60;99.90;;;;;;5098343;27;20245;-82
2022/02/27 06:50:59;;;;;;;0.68;0.68;;;-1.40;99.90;;;;;;5112668;27;20191;-82
2022/02/27 06:53:24;;;;;;;0.70;0.70;;;-1.40;99.90;;;;;;5112618;28;20693;-84
2022/02/27 06:55:50;;;;;;;0.85;0.85;;;-1.40;99.90;;;;;;5112405;28;20223;-84
2022/02/27 06:58:19;;;;;;;1.45;1.25;;;-1.30;99.90;;;;;;5113445;28;20251;-84
2022/02/27 07:00:46;;;;;;;0.77;0.77;;;-1.30;99.90;;;;;;5115537;27;20194;-83
2022/02/27 07:03:11;;;;;;;0.70;0.70;;;-1.10;99.90;;;;;;5132681;27;20285;-83
2022/02/27 07:05:38;;;;;;;0.70;0.70;;;-1.00;99.90;;;;;;5095191;28;20238;-83
2022/02/27 07:08:05;;;;;;;0.80;0.80;;;-0.80;99.90;;;;;;5109708;27;20225;-83
2022/02/27 07:10:34;;;;;;;0.70;0.70;;;-0.70;99.90;;;;;;5099161;28;20200;-83
2022/02/27 07:13:00;;;;;;;0.73;0.73;;;-0.50;99.90;;;;;;5095713;28;20211;-83
2022/02/27 07:15:25;;;;;;;0.70;0.70;;;-0.20;99.90;;;;;;5108928;27;20214;-82
2022/02/27 07:17:51;;;;;;;0.80;0.80;;;0.00;99.90;;;;;;5098733;28;20207;-83
2022/02/27 07:20:17;;;;;;;1.42;1.33;;;0.20;99.90;;;;;;5098511;28;20203;-84
2022/02/27 07:22:43;;;;;;;0.80;0.80;;;0.40;99.90;;;;;;5096864;28;20572;-81
2022/02/27 07:25:09;;;;;;;0.70;0.70;;;0.60;99.90;;;;;;5101203;28;20207;-82
2022/02/27 07:27:35;;;;;;;0.80;0.80;;;0.80;99.90;;;;;;5095278;28;20203;-83
2022/02/27 07:30:02;;;;;;;20.88;3.53;;;0.90;99.90;;;;;;5105643;27;20202;-84
2022/02/27 07:32:28;;;;;;;0.70;0.70;;;1.00;99.90;;;;;;5102916;28;20203;-81
2022/02/27 07:34:54;;;;;;;0.70;0.70;;;1.20;99.90;;;;;;5095361;28;20692;-84
2022/02/27 07:37:20;;;;;;;0.60;0.60;;;1.30;99.90;;;;;;5093810;28;20207;-84
2022/02/27 07:39:46;;;;;;;0.70;0.70;;;1.40;99.90;;;;;;5094343;28;20277;-83
2022/02/27 07:42:12;;;;;;;0.70;0.70;;;1.50;99.90;;;;;;5095026;28;20286;-85
2022/02/27 07:44:38;;;;;;;0.65;0.65;;;1.60;99.90;;;;;;5093660;28;20649;-83
2022/02/27 07:47:13;;;;;;;0.70;0.70;;;1.60;99.90;;;;;;5095737;28;20298;-86
2022/02/27 07:49:39;;;;;;;0.73;0.73;;;1.60;99.90;;;;;;5093873;28;20285;-84
2022/02/27 07:52:05;;;;;;;0.65;0.65;;;1.60;99.90;;;;;;5094486;28;20219;-85
2022/02/27 07:54:31;;;;;;;0.57;0.57;;;1.60;99.90;;;;;;5083407;28;20208;-84
2022/02/27 07:56:56;;;;;;;18.83;1.98;;;1.70;99.90;;;;;;5095012;28;20230;-84
2022/02/27 07:59:22;;;;;;;0.63;0.63;;;1.90;99.90;;;;;;5094568;28;20196;-83
2022/02/27 08:01:48;;;;;;;0.65;0.65;;;2.10;99.90;;;;;;5094495;28;20750;-82
2022/02/27 08:04:15;;;;;;;0.70;0.70;;;2.20;99.90;;;;;;5128860;27;20646;-83
2022/02/27 08:06:41;;;;;;;0.60;0.60;;;2.20;99.90;;;;;;5094585;27;20227;-81
2022/02/27 08:09:06;;;;;;;0.85;0.85;;;2.30;99.90;;;;;;5109795;28;20617;-81
2022/02/27 08:11:33;;;;;;;0.50;0.50;;;2.40;99.90;;;;;;5111815;28;20253;-82
2022/02/27 08:14:02;;;;;;;0.70;0.70;;;2.60;99.90;;;;;;5129088;27;20341;-84
2022/02/27 08:16:39;;;;;;;0.90;0.90;;;2.70;99.90;;;;;;5094167;28;20207;-84
2022/02/27 08:19:06;;;;;;;0.50;0.50;;;2.70;99.90;;;;;;5077100;28;20682;-87
2022/02/27 08:21:32;;;;;;;0.70;0.70;;;2.70;99.90;;;;;;5093397;28;20202;-83
2022/02/27 08:23:57;;;;;;;0.50;0.50;;;2.60;99.90;;;;;;5094162;28;20582;-83
2022/02/27 08:26:23;;;;;;;0.60;0.60;;;2.60;99.90;;;;;;5094757;28;20207;-82
2022/02/27 08:28:49;;;;;;;0.80;0.80;;;2.50;99.90;;;;;;5094467;28;20643;-81
2022/02/27 08:31:15;;;;;;;0.70;0.70;;;2.60;99.90;;;;;;5094135;28;20203;-83
2022/02/27 08:33:40;;;;;;;0.63;0.63;;;2.60;99.90;;;;;;5081392;28;20303;-82
2022/02/27 08:36:06;;;;;;;0.70;0.70;;;2.50;99.90;;;;;;5104274;28;20577;-84
2022/02/27 08:38:32;;;;;;;0.70;0.70;;;2.60;99.90;;;;;;5113718;28;20231;-83
2022/02/27 08:41:01;;;;;;;0.70;0.70;;;2.60;99.90;;;;;;5104448;27;20289;-83
2022/02/27 08:43:26;;;;;;;0.65;0.65;;;2.60;99.90;;;;;;5099786;28;20213;-82
2022/02/27 08:45:52;;;;;;;0.70;0.70;;;2.60;99.90;;;;;;5112226;28;20203;-80
2022/02/27 08:48:18;;;;;;;0.80;0.80;;;2.50;99.90;;;;;;5093804;28;20210;-81
2022/02/27 08:50:44;;;;;;;0.70;0.70;;;2.60;99.90;;;;;;5100269;28;20194;-82
2022/02/27 08:53:10;;;;;;;0.65;0.65;;;2.70;99.90;;;;;;5103426;28;20211;-82
2022/02/27 08:55:36;;;;;;;0.65;0.65;;;2.70;99.90;;;;;;5100109;27;20233;-82
2022/02/27 08:58:01;;;;;;;0.60;0.60;;;2.80;99.90;;;;;;5126879;28;20210;-82
2022/02/27 09:00:28;;;;;;;0.85;0.85;;;3.00;99.90;;;;;;5115475;27;20225;-81
2022/02/27 09:02:54;;;;;;;0.70;0.70;;;3.10;99.90;;;;;;5116997;27;20195;-82
2022/02/27 09:05:20;;;;;;;0.60;0.60;;;3.20;99.90;;;;;;5130335;27;20210;-87
2022/02/27 09:07:46;;;;;;;0.70;0.70;;;3.30;99.90;;;;;;5132620;27;20216;-84
2022/02/27 09:10:15;;;;;;;1.10;1.10;;;3.40;99.90;;;;;;5133473;27;20205;-83
2022/02/27 09:12:45;;;;;;;0.60;0.60;;;3.40;99.90;;;;;;5131520;27;20230;-84
2022/02/27 09:15:13;;;;;;;0.52;0.52;;;3.30;99.90;;;;;;5131370;27;20664;-82
2022/02/27 09:17:39;;;;;;;0.70;0.70;;;3.50;99.90;;;;;;5133366;27;20216;-82
2022/02/27 09:20:06;;;;;;;0.50;0.50;;;3.60;99.90;;;;;;5133300;27;20285;-81
2022/02/27 09:22:32;;;;;;;0.63;0.63;;;3.60;99.90;;;;;;5131911;27;20202;-84
2022/02/27 09:24:58;;;;;;;6.07;1.45;;;3.70;99.90;;;;;;5131708;27;20250;-82
2022/02/27 09:27:23;;;;;;;0.75;0.75;;;3.70;99.90;;;;;;5130995;27;20258;-85
2022/02/27 09:29:51;;;;;;;0.60;0.60;;;3.90;99.90;;;;;;5136088;27;20208;-85
2022/02/27 09:32:19;;;;;;;1.95;1.75;;;4.00;99.90;;;;;;5117125;27;20760;-84
2022/02/27 09:34:48;;;;;;;0.55;0.55;;;4.20;99.90;;;;;;5131603;27;20248;-85
2022/02/27 09:37:14;;;;;;;0.95;0.95;;;4.20;99.90;;;;;;5135914;27;20209;-84
2022/02/27 09:39:40;;;;;;;0.55;0.55;;;4.20;99.90;;;;;;5135167;27;20205;-84
2022/02/27 09:42:11;;;;;;;2.92;1.45;;;4.20;99.90;;;;;;5134917;27;20198;-85
2022/02/27 09:44:40;;;;;;;0.60;0.60;;;4.20;99.90;;;;;;5134301;27;20194;-84
2022/02/27 09:47:22;;;;;;;0.80;0.80;;;4.30;99.90;;;;;;5136012;27;20194;-87
2022/02/27 09:49:48;;;;;;;2.95;1.60;;;4.30;99.90;;;;;;5135497;27;20194;-84
2022/02/27 09:52:15;;;;;;;0.60;0.60;;;4.40;99.90;;;;;;5120408;27;20229;-84
2022/02/27 09:54:40;;;;;;;3.25;1.60;;;4.50;99.90;;;;;;5119419;27;20194;-85
2022/02/27 09:57:06;;;;;;;0.60;0.60;;;4.70;99.90;;;;;;5136145;27;20229;-86
2022/02/27 09:59:32;;;;;;;0.55;0.55;;;5.10;99.90;;;;;;5133964;27;20229;-82
2022/02/27 10:02:04;;;;;;;2.05;1.58;;;5.70;99.90;;;;;;5134463;27;20566;-84
2022/02/27 10:04:36;;;;;;;0.60;0.60;;;6.30;99.90;;;;;;5137194;27;20186;-84
2022/02/27 10:07:31;;;;;;;0.65;0.65;;;6.90;99.90;;;;;;5128184;27;20707;-84
2022/02/27 10:10:06;;;;;;;0.70;0.70;;;7.40;99.90;;;;;;5110523;27;20214;-83
2022/02/27 10:12:35;;;;;;;0.70;0.70;;;7.50;99.90;;;;;;5127302;27;20206;-83
2022/02/27 10:15:02;;;;;;;1.02;0.90;;;7.80;99.90;;;;;;5118317;27;20195;-82
2022/02/27 10:17:38;;;;;;;0.80;0.80;;;7.70;99.90;;;;;;5139877;27;20202;-83
2022/02/27 10:20:16;;;;;;;0.60;0.60;;;7.80;99.90;;;;;;5127658;27;20568;-84
2022/02/27 10:22:47;;;;;;;1.05;1.05;;;7.50;99.90;;;;;;5117184;27;20221;-84
2022/02/27 10:25:24;;;;;;;0.60;0.60;;;7.60;99.90;;;;;;5116061;27;20203;-85
2022/02/27 10:27:55;;;;;;;0.73;0.73;;;8.00;99.90;;;;;;5116736;27;20198;-84
2022/02/27 10:30:28;;;;;;;0.60;0.60;;;8.10;99.90;;;;;;5115174;27;20206;-84
2022/02/27 10:33:06;;;;;;;0.70;0.70;;;8.20;99.90;;;;;;5117063;27;20689;-84
2022/02/27 10:35:56;;;;;;;0.70;0.70;;;8.10;99.90;;;;;;5123605;27;20206;-83
2022/02/27 10:38:51;;;;;;;1.30;1.20;;;8.10;99.90;;;;;;5132863;27;20210;-85
2022/02/27 10:41:21;;;;;;;0.70;0.70;;;8.30;99.90;;;;;;5133102;27;20665;-82
2022/02/27 10:43:48;;;;;;;0.80;0.80;;;8.50;99.90;;;;;;5120649;27;20306;-82
2022/02/27 10:46:18;;;;;;;0.70;0.70;;;8.20;99.90;;;;;;5118946;27;20201;-82
2022/02/27 10:49:31;;;;;;;0.63;0.63;;;8.30;99.90;;;;;;5116487;27;20546;-83
2022/02/27 10:52:10;;;;;;;0.70;0.70;;;8.60;99.90;;;;;;5071172;28;20207;-83
2022/02/27 10:54:40;;;;;;;0.65;0.65;;;8.20;99.90;;;;;;5073906;28;20298;-85
2022/02/27 10:57:11;;;;;;;0.93;0.93;;;8.40;99.90;;;;;;5072491;28;20270;-84
2022/02/27 10:59:42;;;;;;;1.00;1.00;;;8.40;99.90;;;;;;5054180;28;20311;-86
2022/02/27 11:02:13;;;;;;;0.80;0.80;;;8.40;99.90;;;;;;5054638;28;20200;-83
2022/02/27 11:04:57;;;;;;;0.73;0.73;;;8.20;99.90;;;;;;5054485;28;20204;-87
2022/02/27 11:07:23;;;;;;;0.65;0.65;;;8.40;99.90;;;;;;5053605;28;20208;-89
2022/02/27 11:09:55;;;;;;;16.10;1.30;;;8.80;99.90;;;;;;5055211;28;20205;-87
2022/02/27 11:12:25;;;;;;;1.58;1.17;;;8.80;99.90;;;;;;5055147;28;20270;-87
2022/02/27 11:15:10;;;;;;;0.93;0.93;;;9.20;99.90;;;;;;5053092;28;20263;-87
2022/02/27 11:17:42;;;;;;;3.83;1.92;;;9.60;99.90;;;;;;5055314;28;20311;-86
2022/02/27 11:20:21;;;;;;;0.82;0.82;;;9.20;99.90;;;;;;5054496;28;20706;-85
2022/02/27 11:23:00;;;;;;;0.70;0.70;;;9.10;99.90;;;;;;5054772;28;20208;-84
2022/02/27 11:25:35;;;;;;;0.65;0.65;;;8.90;99.90;;;;;;5052728;28;20215;-86
2022/02/27 11:28:35;;;;;;;0.77;0.77;;;8.80;99.90;;;;;;5078277;27;20203;-88
2022/02/27 11:31:28;;;;;;;0.60;0.60;;;8.80;99.90;;;;;;5104760;28;20265;-88
2022/02/27 11:42:17;;;;;;;0.50;0.50;;;9.20;99.90;;;;;;4935930;28;20207;-89
2022/02/27 11:48:18;;;;;;;1.38;1.02;;;9.20;99.90;;;;;;4882622;29;20219;-89
2022/02/27 11:50:52;;;;;;;0.60;0.60;;;9.40;99.90;;;;;;4952793;28;20291;-87
2022/02/27 11:54:33;;;;;;;0.60;0.60;;;9.40;99.90;;;;;;5001922;28;20281;-87
2022/02/27 11:57:26;;;;;;;;;;;;;;;;;;;;;
2022/02/27 12:04:41;;;;;;;0.90;0.90;;;8.90;99.90;;;;;;5027407;28;20273;-90
2022/02/27 12:08:05;;;;;;;1.00;1.00;;;8.70;99.90;;;;;;5078853;27;20225;-89
2022/02/27 12:15:01;;;;;;;;;;;;;;;;;;;;;
2022/02/27 12:18:16;;;;;;;0.70;0.70;;;9.30;99.90;;;;;;4983307;28;20236;-91
2022/02/27 12:24:52;;;;;;;0.60;0.60;;;8.80;99.90;;;;;;5007680;28;20217;-89
2022/02/27 12:27:39;;;;;;;0.70;0.70;;;8.70;99.90;;;;;;4996040;28;20207;-87
2022/02/27 12:30:06;;;;;;;11.85;1.45;;;8.90;99.90;;;;;;5010878;28;20199;-86
2022/02/27 12:32:34;;;;;;;0.70;0.70;;;8.70;99.90;;;;;;4994094;28;20199;-86
2022/02/27 12:35:00;;;;;;;0.80;0.80;;;9.00;99.90;;;;;;4992036;28;20236;-86
2022/02/27 12:37:29;;;;;;;1.40;1.15;;;9.20;99.90;;;;;;4992611;28;20706;-87
2022/02/27 12:41:03;;;;;;;;;;;;;;;;;;;;;
2022/02/27 12:48:22;;;;;;;4.75;1.73;;;8.90;99.90;;;;;;4879611;29;20611;-89
2022/02/27 12:50:54;;;;;;;0.60;0.60;;;8.70;99.90;;;;;;4855365;29;20313;-87
2022/02/27 12:57:15;;;;;;;0.60;0.60;;;8.50;99.90;;;;;;4899458;28;20210;-87
2022/02/27 12:59:57;;;;;;;0.80;0.80;;;8.60;99.90;;;;;;4842737;29;20310;-84
2022/02/27 13:02:29;;;;;;;1.38;1.27;;;8.40;99.90;;;;;;4859491;29;20242;-84
2022/02/27 13:04:59;;;;;;;0.80;0.80;;;8.20;99.90;;;;;;4878928;29;20219;-88
2022/02/27 13:07:27;;;;;;;0.60;0.60;;;8.10;99.90;;;;;;4881548;29;20219;-84
2022/02/27 13:09:57;;;;;;;0.82;0.80;;;7.80;99.90;;;;;;4881747;29;20610;-84
2022/02/27 13:12:28;;;;;;;0.60;0.60;;;7.80;99.90;;;;;;4866670;29;20203;-82
2022/02/27 13:14:56;;;;;;;0.60;0.60;;;8.00;99.90;;;;;;4881401;29;20210;-84
2022/02/27 13:17:27;;;;;;;1.33;1.23;;;8.00;99.90;;;;;;4892606;29;20225;-82
2022/02/27 13:19:55;;;;;;;0.80;0.80;;;7.90;99.90;;;;;;4920748;29;20205;-81
2022/02/27 13:22:35;;;;;;;0.60;0.60;;;7.70;99.90;;;;;;4918223;29;20708;-82
2022/02/27 13:25:04;;;;;;;0.60;0.60;;;7.50;99.90;;;;;;4921034;29;20209;-82
2022/02/27 13:27:32;;;;;;;0.60;0.60;;;7.30;99.90;;;;;;4957763;28;20214;-81
2022/02/27 13:30:01;;;;;;;0.77;0.77;;;7.10;99.90;;;;;;4978399;28;20204;-81
2022/02/27 13:32:33;;;;;;;0.95;0.95;;;7.00;99.90;;;;;;4995800;28;20210;-82
2022/02/27 13:35:01;;;;;;;0.70;0.70;;;7.00;99.90;;;;;;5023390;28;20264;-77
2022/02/27 13:37:33;;;;;;;0.57;0.57;;;7.20;99.90;;;;;;5097506;28;20211;-83
2022/02/27 13:40:15;;;;;;;1.05;1.00;;;7.30;99.90;;;;;;5115670;27;20201;-84